sensor_id;sensor_type;location;lat;lon;timestamp;P1;durP1;ratioP1;P2;durP2;ratioP2
12906;SDS011;6521;50.498;8.474;2022-11-15T00:01:50;7.00;;;5.67;;
12906;SDS011;6521;50.498;8.474;2022-11-15T00:04:40;9.73;;;5.60;;
12906;SDS011;6521;50.498;8.474;2022-11-15T00:07:29;6.30;;;5.40;;
12906;SDS011;6521;50.498;8.474;2022-11-15T00:10:18;6.00;;;5.40;;
12906;SDS011;6521;50.498;8.474;2022-11-15T00:13:11;9.47;;;5.70;;
12906;SDS011;6521;50.498;8.474;2022-11-15T00:16:01;9.83;;;6.93;;
12906;SDS011;6521;50.498;8.474;2022-11-15T00:18:50;6.83;;;5.47;;
12906;SDS011;6521;50.498;8.474;2022-11-15T00:21:40;9.13;;;5.80;;
12906;SDS011;6521;50.498;8.474;2022-11-15T00:24:30;7.20;;;5.60;;
12906;SDS011;6521;50.498;8.474;2022-11-15T00:27:19;7.80;;;5.50;;
12906;SDS011;6521;50.498;8.474;2022-11-15T00:30:08;7.37;;;5.50;;
12906;SDS011;6521;50.498;8.474;2022-11-15T00:33:04;6.17;;;5.03;;
12906;SDS011;6521;50.498;8.474;2022-11-15T00:35:59;6.87;;;5.47;;
12906;SDS011;6521;50.498;8.474;2022-11-15T00:38:53;5.60;;;5.00;;
12906;SDS011;6521;50.498;8.474;2022-11-15T00:41:43;8.00;;;5.73;;
12906;SDS011;6521;50.498;8.474;2022-11-15T00:44:32;6.23;;;5.60;;
12906;SDS011;6521;50.498;8.474;2022-11-15T00:47:21;5.63;;;5.00;;
12906;SDS011;6521;50.498;8.474;2022-11-15T00:50:11;7.93;;;6.40;;
12906;SDS011;6521;50.498;8.474;2022-11-15T00:53:01;7.03;;;5.53;;
12906;SDS011;6521;50.498;8.474;2022-11-15T00:55:50;8.60;;;5.73;;
12906;SDS011;6521;50.498;8.474;2022-11-15T00:58:40;6.47;;;4.97;;
12906;SDS011;6521;50.498;8.474;2022-11-15T01:01:29;9.03;;;6.20;;
12906;SDS011;6521;50.498;8.474;2022-11-15T01:04:19;6.80;;;5.77;;
12906;SDS011;6521;50.498;8.474;2022-11-15T01:07:08;7.43;;;6.47;;
12906;SDS011;6521;50.498;8.474;2022-11-15T01:09:58;10.30;;;6.60;;
12906;SDS011;6521;50.498;8.474;2022-11-15T01:12:47;9.43;;;6.10;;
12906;SDS011;6521;50.498;8.474;2022-11-15T01:15:40;10.73;;;6.17;;
12906;SDS011;6521;50.498;8.474;2022-11-15T01:18:30;9.10;;;5.93;;
12906;SDS011;6521;50.498;8.474;2022-11-15T01:21:19;8.67;;;6.57;;
12906;SDS011;6521;50.498;8.474;2022-11-15T01:24:12;9.97;;;6.70;;
12906;SDS011;6521;50.498;8.474;2022-11-15T01:27:02;9.00;;;6.63;;
12906;SDS011;6521;50.498;8.474;2022-11-15T01:29:52;9.90;;;7.07;;
12906;SDS011;6521;50.498;8.474;2022-11-15T01:32:41;7.30;;;6.37;;
12906;SDS011;6521;50.498;8.474;2022-11-15T01:35:31;8.33;;;5.93;;
12906;SDS011;6521;50.498;8.474;2022-11-15T01:38:20;9.20;;;6.33;;
12906;SDS011;6521;50.498;8.474;2022-11-15T01:41:15;8.00;;;6.40;;
12906;SDS011;6521;50.498;8.474;2022-11-15T01:48:09;6.53;;;5.40;;
12906;SDS011;6521;50.498;8.474;2022-11-15T01:50:41;7.07;;;5.87;;
12906;SDS011;6521;50.498;8.474;2022-11-15T01:53:30;6.77;;;5.40;;
12906;SDS011;6521;50.498;8.474;2022-11-15T01:56:23;6.57;;;5.87;;
12906;SDS011;6521;50.498;8.474;2022-11-15T01:59:16;8.30;;;5.87;;
12906;SDS011;6521;50.498;8.474;2022-11-15T02:02:07;6.73;;;5.53;;
12906;SDS011;6521;50.498;8.474;2022-11-15T02:04:56;9.90;;;4.80;;
12906;SDS011;6521;50.498;8.474;2022-11-15T02:07:46;8.97;;;5.47;;
12906;SDS011;6521;50.498;8.474;2022-11-15T02:10:37;7.13;;;5.37;;
12906;SDS011;6521;50.498;8.474;2022-11-15T02:13:26;6.30;;;5.17;;
12906;SDS011;6521;50.498;8.474;2022-11-15T02:29:10;7.33;;;6.20;;
12906;SDS011;6521;50.498;8.474;2022-11-15T02:32:10;8.30;;;5.90;;
12906;SDS011;6521;50.498;8.474;2022-11-15T02:35:12;7.77;;;6.87;;
12906;SDS011;6521;50.498;8.474;2022-11-15T02:41:15;11.43;;;7.10;;
12906;SDS011;6521;50.498;8.474;2022-11-15T02:44:17;11.47;;;6.87;;
12906;SDS011;6521;50.498;8.474;2022-11-15T02:47:15;7.13;;;6.43;;
12906;SDS011;6521;50.498;8.474;2022-11-15T02:50:08;8.00;;;6.40;;
12906;SDS011;6521;50.498;8.474;2022-11-15T02:52:59;11.37;;;7.03;;
12906;SDS011;6521;50.498;8.474;2022-11-15T02:55:49;8.43;;;6.33;;
12906;SDS011;6521;50.498;8.474;2022-11-15T03:02:03;8.57;;;7.10;;
12906;SDS011;6521;50.498;8.474;2022-11-15T03:08:36;8.73;;;6.20;;
12906;SDS011;6521;50.498;8.474;2022-11-15T03:11:36;9.53;;;5.87;;
12906;SDS011;6521;50.498;8.474;2022-11-15T03:14:32;7.93;;;5.80;;
12906;SDS011;6521;50.498;8.474;2022-11-15T03:17:26;8.40;;;5.87;;
12906;SDS011;6521;50.498;8.474;2022-11-15T03:20:23;12.03;;;6.73;;
12906;SDS011;6521;50.498;8.474;2022-11-15T03:23:15;11.10;;;6.07;;
12906;SDS011;6521;50.498;8.474;2022-11-15T03:26:07;8.17;;;5.93;;
12906;SDS011;6521;50.498;8.474;2022-11-15T03:29:04;9.97;;;5.80;;
12906;SDS011;6521;50.498;8.474;2022-11-15T03:32:19;9.67;;;6.13;;
12906;SDS011;6521;50.498;8.474;2022-11-15T03:35:23;6.90;;;5.83;;
12906;SDS011;6521;50.498;8.474;2022-11-15T03:38:27;8.73;;;5.17;;
12906;SDS011;6521;50.498;8.474;2022-11-15T03:41:25;12.23;;;6.13;;
12906;SDS011;6521;50.498;8.474;2022-11-15T03:47:23;7.83;;;6.20;;
12906;SDS011;6521;50.498;8.474;2022-11-15T03:50:18;8.03;;;5.63;;
12906;SDS011;6521;50.498;8.474;2022-11-15T03:53:09;6.80;;;5.93;;
12906;SDS011;6521;50.498;8.474;2022-11-15T03:55:59;11.77;;;5.90;;
12906;SDS011;6521;50.498;8.474;2022-11-15T03:58:48;13.00;;;5.83;;
12906;SDS011;6521;50.498;8.474;2022-11-15T04:01:38;11.57;;;6.00;;
12906;SDS011;6521;50.498;8.474;2022-11-15T04:04:27;14.30;;;6.80;;
12906;SDS011;6521;50.498;8.474;2022-11-15T04:07:16;9.57;;;5.87;;
12906;SDS011;6521;50.498;8.474;2022-11-15T04:10:06;11.73;;;5.97;;
12906;SDS011;6521;50.498;8.474;2022-11-15T04:12:55;8.07;;;5.57;;
12906;SDS011;6521;50.498;8.474;2022-11-15T04:15:45;6.83;;;5.07;;
12906;SDS011;6521;50.498;8.474;2022-11-15T04:18:34;6.27;;;5.10;;
12906;SDS011;6521;50.498;8.474;2022-11-15T04:21:24;6.27;;;4.87;;
12906;SDS011;6521;50.498;8.474;2022-11-15T04:24:34;6.43;;;4.80;;
12906;SDS011;6521;50.498;8.474;2022-11-15T04:27:23;5.47;;;4.50;;
12906;SDS011;6521;50.498;8.474;2022-11-15T04:30:13;3.90;;;3.60;;
12906;SDS011;6521;50.498;8.474;2022-11-15T04:33:02;5.03;;;4.13;;
12906;SDS011;6521;50.498;8.474;2022-11-15T04:35:52;8.30;;;4.77;;
12906;SDS011;6521;50.498;8.474;2022-11-15T04:39:07;7.03;;;4.00;;
12906;SDS011;6521;50.498;8.474;2022-11-15T04:41:57;5.93;;;4.17;;
12906;SDS011;6521;50.498;8.474;2022-11-15T04:44:46;4.57;;;3.47;;
12906;SDS011;6521;50.498;8.474;2022-11-15T04:47:35;5.20;;;3.90;;
12906;SDS011;6521;50.498;8.474;2022-11-15T04:50:25;5.17;;;3.80;;
12906;SDS011;6521;50.498;8.474;2022-11-15T04:53:14;5.43;;;4.07;;
12906;SDS011;6521;50.498;8.474;2022-11-15T04:56:04;5.03;;;3.60;;
12906;SDS011;6521;50.498;8.474;2022-11-15T04:58:53;8.43;;;3.70;;
12906;SDS011;6521;50.498;8.474;2022-11-15T05:01:43;4.50;;;3.70;;
12906;SDS011;6521;50.498;8.474;2022-11-15T05:04:32;4.97;;;3.53;;
12906;SDS011;6521;50.498;8.474;2022-11-15T05:07:21;6.43;;;4.13;;
12906;SDS011;6521;50.498;8.474;2022-11-15T05:10:11;4.23;;;3.57;;
12906;SDS011;6521;50.498;8.474;2022-11-15T05:13:01;4.97;;;3.80;;
12906;SDS011;6521;50.498;8.474;2022-11-15T05:15:50;4.47;;;4.07;;
12906;SDS011;6521;50.498;8.474;2022-11-15T05:18:39;5.97;;;3.77;;
12906;SDS011;6521;50.498;8.474;2022-11-15T05:21:32;4.67;;;3.80;;
12906;SDS011;6521;50.498;8.474;2022-11-15T05:24:22;6.03;;;3.93;;
12906;SDS011;6521;50.498;8.474;2022-11-15T05:27:11;6.53;;;3.10;;
12906;SDS011;6521;50.498;8.474;2022-11-15T05:30:01;6.30;;;3.70;;
12906;SDS011;6521;50.498;8.474;2022-11-15T05:32:50;6.17;;;4.17;;
12906;SDS011;6521;50.498;8.474;2022-11-15T05:35:41;4.73;;;3.80;;
12906;SDS011;6521;50.498;8.474;2022-11-15T05:38:34;5.40;;;3.73;;
12906;SDS011;6521;50.498;8.474;2022-11-15T05:41:25;4.97;;;4.47;;
12906;SDS011;6521;50.498;8.474;2022-11-15T05:44:20;6.03;;;4.73;;
12906;SDS011;6521;50.498;8.474;2022-11-15T05:47:12;7.00;;;4.40;;
12906;SDS011;6521;50.498;8.474;2022-11-15T05:50:04;5.53;;;4.20;;
12906;SDS011;6521;50.498;8.474;2022-11-15T05:52:55;7.40;;;4.87;;
12906;SDS011;6521;50.498;8.474;2022-11-15T05:55:44;6.30;;;4.80;;
12906;SDS011;6521;50.498;8.474;2022-11-15T05:58:33;5.20;;;4.70;;
12906;SDS011;6521;50.498;8.474;2022-11-15T06:01:24;6.13;;;5.00;;
12906;SDS011;6521;50.498;8.474;2022-11-15T06:04:13;6.20;;;4.90;;
12906;SDS011;6521;50.498;8.474;2022-11-15T06:07:03;9.27;;;4.77;;
12906;SDS011;6521;50.498;8.474;2022-11-15T06:09:53;4.80;;;4.27;;
12906;SDS011;6521;50.498;8.474;2022-11-15T06:12:42;5.80;;;4.57;;
12906;SDS011;6521;50.498;8.474;2022-11-15T06:15:32;6.33;;;4.80;;
12906;SDS011;6521;50.498;8.474;2022-11-15T06:18:23;6.33;;;4.90;;
12906;SDS011;6521;50.498;8.474;2022-11-15T06:21:12;8.67;;;6.13;;
12906;SDS011;6521;50.498;8.474;2022-11-15T06:24:02;9.20;;;6.13;;
12906;SDS011;6521;50.498;8.474;2022-11-15T06:26:51;6.70;;;4.97;;
12906;SDS011;6521;50.498;8.474;2022-11-15T06:29:41;8.10;;;5.80;;
12906;SDS011;6521;50.498;8.474;2022-11-15T06:32:30;8.43;;;6.57;;
12906;SDS011;6521;50.498;8.474;2022-11-15T06:35:20;8.57;;;5.57;;
12906;SDS011;6521;50.498;8.474;2022-11-15T06:38:09;8.43;;;6.03;;
12906;SDS011;6521;50.498;8.474;2022-11-15T06:41:07;9.33;;;6.07;;
12906;SDS011;6521;50.498;8.474;2022-11-15T06:43:58;15.63;;;6.53;;
12906;SDS011;6521;50.498;8.474;2022-11-15T06:46:47;7.00;;;5.00;;
12906;SDS011;6521;50.498;8.474;2022-11-15T06:49:37;15.80;;;5.80;;
12906;SDS011;6521;50.498;8.474;2022-11-15T06:52:26;14.00;;;6.37;;
12906;SDS011;6521;50.498;8.474;2022-11-15T06:55:21;15.47;;;5.20;;
12906;SDS011;6521;50.498;8.474;2022-11-15T06:58:11;6.40;;;5.00;;
12906;SDS011;6521;50.498;8.474;2022-11-15T07:01:04;11.63;;;5.57;;
12906;SDS011;6521;50.498;8.474;2022-11-15T07:03:56;13.07;;;4.60;;
12906;SDS011;6521;50.498;8.474;2022-11-15T07:06:46;17.77;;;5.50;;
12906;SDS011;6521;50.498;8.474;2022-11-15T07:09:36;10.10;;;5.17;;
12906;SDS011;6521;50.498;8.474;2022-11-15T07:12:25;8.47;;;6.00;;
12906;SDS011;6521;50.498;8.474;2022-11-15T07:15:15;7.43;;;4.83;;
12906;SDS011;6521;50.498;8.474;2022-11-15T07:18:05;9.03;;;4.60;;
12906;SDS011;6521;50.498;8.474;2022-11-15T07:20:55;8.30;;;5.23;;
12906;SDS011;6521;50.498;8.474;2022-11-15T07:23:44;9.37;;;5.40;;
12906;SDS011;6521;50.498;8.474;2022-11-15T07:26:34;7.03;;;5.20;;
12906;SDS011;6521;50.498;8.474;2022-11-15T07:29:23;5.63;;;5.13;;
12906;SDS011;6521;50.498;8.474;2022-11-15T07:32:13;5.57;;;4.80;;
12906;SDS011;6521;50.498;8.474;2022-11-15T07:35:02;15.27;;;6.27;;
12906;SDS011;6521;50.498;8.474;2022-11-15T07:37:59;7.60;;;5.43;;
12906;SDS011;6521;50.498;8.474;2022-11-15T07:40:55;11.40;;;5.20;;
12906;SDS011;6521;50.498;8.474;2022-11-15T07:43:51;6.97;;;5.20;;
12906;SDS011;6521;50.498;8.474;2022-11-15T07:46:41;9.43;;;5.13;;
12906;SDS011;6521;50.498;8.474;2022-11-15T07:49:31;12.53;;;5.60;;
12906;SDS011;6521;50.498;8.474;2022-11-15T07:52:20;10.13;;;5.73;;
12906;SDS011;6521;50.498;8.474;2022-11-15T07:55:10;12.03;;;5.67;;
12906;SDS011;6521;50.498;8.474;2022-11-15T07:58:01;12.97;;;6.10;;
12906;SDS011;6521;50.498;8.474;2022-11-15T08:00:51;10.47;;;5.83;;
12906;SDS011;6521;50.498;8.474;2022-11-15T08:03:40;7.13;;;5.07;;
12906;SDS011;6521;50.498;8.474;2022-11-15T08:06:30;11.67;;;6.03;;
12906;SDS011;6521;50.498;8.474;2022-11-15T08:09:19;9.63;;;5.33;;
12906;SDS011;6521;50.498;8.474;2022-11-15T08:12:09;7.00;;;5.47;;
12906;SDS011;6521;50.498;8.474;2022-11-15T08:14:58;7.83;;;5.83;;
12906;SDS011;6521;50.498;8.474;2022-11-15T08:17:52;7.37;;;5.30;;
12906;SDS011;6521;50.498;8.474;2022-11-15T08:20:42;5.73;;;5.20;;
12906;SDS011;6521;50.498;8.474;2022-11-15T08:23:32;9.20;;;5.63;;
12906;SDS011;6521;50.498;8.474;2022-11-15T08:26:21;9.53;;;5.57;;
12906;SDS011;6521;50.498;8.474;2022-11-15T08:29:11;8.27;;;5.80;;
12906;SDS011;6521;50.498;8.474;2022-11-15T08:32:01;10.23;;;5.73;;
12906;SDS011;6521;50.498;8.474;2022-11-15T08:34:50;7.80;;;5.40;;
12906;SDS011;6521;50.498;8.474;2022-11-15T08:37:40;7.40;;;5.87;;
12906;SDS011;6521;50.498;8.474;2022-11-15T08:40:29;9.87;;;5.33;;
12906;SDS011;6521;50.498;8.474;2022-11-15T08:43:18;7.40;;;5.57;;
12906;SDS011;6521;50.498;8.474;2022-11-15T08:46:11;12.47;;;6.20;;
12906;SDS011;6521;50.498;8.474;2022-11-15T08:49:02;11.43;;;6.30;;
12906;SDS011;6521;50.498;8.474;2022-11-15T08:51:51;37.87;;;8.00;;
12906;SDS011;6521;50.498;8.474;2022-11-15T08:54:41;17.47;;;6.80;;
12906;SDS011;6521;50.498;8.474;2022-11-15T08:57:30;11.07;;;6.30;;
12906;SDS011;6521;50.498;8.474;2022-11-15T09:00:20;12.33;;;7.07;;
12906;SDS011;6521;50.498;8.474;2022-11-15T09:03:09;11.23;;;7.00;;
12906;SDS011;6521;50.498;8.474;2022-11-15T09:05:59;9.10;;;6.47;;
12906;SDS011;6521;50.498;8.474;2022-11-15T09:08:49;9.47;;;6.57;;
12906;SDS011;6521;50.498;8.474;2022-11-15T09:11:39;12.90;;;6.77;;
12906;SDS011;6521;50.498;8.474;2022-11-15T09:14:28;16.53;;;6.83;;
12906;SDS011;6521;50.498;8.474;2022-11-15T09:17:17;13.03;;;7.00;;
12906;SDS011;6521;50.498;8.474;2022-11-15T09:20:08;12.73;;;7.40;;
12906;SDS011;6521;50.498;8.474;2022-11-15T09:23:00;24.00;;;7.80;;
12906;SDS011;6521;50.498;8.474;2022-11-15T09:25:50;14.97;;;7.23;;
12906;SDS011;6521;50.498;8.474;2022-11-15T09:28:40;12.63;;;8.23;;
12906;SDS011;6521;50.498;8.474;2022-11-15T09:31:31;9.77;;;7.33;;
12906;SDS011;6521;50.498;8.474;2022-11-15T09:34:20;7.97;;;6.90;;
12906;SDS011;6521;50.498;8.474;2022-11-15T09:37:10;10.33;;;6.40;;
12906;SDS011;6521;50.498;8.474;2022-11-15T09:39:59;11.00;;;6.70;;
12906;SDS011;6521;50.498;8.474;2022-11-15T09:48:55;9.17;;;6.93;;
12906;SDS011;6521;50.498;8.474;2022-11-15T09:51:53;13.10;;;7.03;;
12906;SDS011;6521;50.498;8.474;2022-11-15T09:54:32;10.53;;;6.30;;
12906;SDS011;6521;50.498;8.474;2022-11-15T09:57:15;11.23;;;5.87;;
12906;SDS011;6521;50.498;8.474;2022-11-15T10:05:59;8.00;;;5.57;;
12906;SDS011;6521;50.498;8.474;2022-11-15T10:08:44;9.03;;;5.97;;
12906;SDS011;6521;50.498;8.474;2022-11-15T10:11:22;11.00;;;5.70;;
12906;SDS011;6521;50.498;8.474;2022-11-15T10:13:57;14.60;;;6.60;;
12906;SDS011;6521;50.498;8.474;2022-11-15T10:22:30;6.80;;;5.50;;
12906;SDS011;6521;50.498;8.474;2022-11-15T10:27:39;6.30;;;5.50;;
12906;SDS011;6521;50.498;8.474;2022-11-15T10:30:13;6.38;;;3.50;;
12906;SDS011;6521;50.498;8.474;2022-11-15T10:32:46;4.27;;;3.00;;
12906;SDS011;6521;50.498;8.474;2022-11-15T10:35:19;4.47;;;3.30;;
12906;SDS011;6521;50.498;8.474;2022-11-15T10:37:51;3.93;;;3.17;;
12906;SDS011;6521;50.498;8.474;2022-11-15T10:40:22;4.72;;;2.85;;
12906;SDS011;6521;50.498;8.474;2022-11-15T10:45:56;3.90;;;2.70;;
12906;SDS011;6521;50.498;8.474;2022-11-15T10:48:52;2.20;;;2.00;;
12906;SDS011;6521;50.498;8.474;2022-11-15T10:51:24;2.50;;;2.10;;
12906;SDS011;6521;50.498;8.474;2022-11-15T10:54:00;3.97;;;2.00;;
12906;SDS011;6521;50.498;8.474;2022-11-15T10:56:31;2.47;;;2.27;;
12906;SDS011;6521;50.498;8.474;2022-11-15T10:59:02;2.90;;;2.20;;
12906;SDS011;6521;50.498;8.474;2022-11-15T11:01:32;2.97;;;2.13;;
12906;SDS011;6521;50.498;8.474;2022-11-15T11:04:16;2.90;;;1.90;;
12906;SDS011;6521;50.498;8.474;2022-11-15T11:06:53;2.53;;;1.83;;
12906;SDS011;6521;50.498;8.474;2022-11-15T11:09:34;2.73;;;2.20;;
12906;SDS011;6521;50.498;8.474;2022-11-15T11:12:09;2.30;;;2.07;;
12906;SDS011;6521;50.498;8.474;2022-11-15T11:14:41;4.20;;;2.25;;
12906;SDS011;6521;50.498;8.474;2022-11-15T11:20:55;2.22;;;1.60;;
12906;SDS011;6521;50.498;8.474;2022-11-15T11:23:42;2.90;;;1.70;;
12906;SDS011;6521;50.498;8.474;2022-11-15T11:38:32;3.92;;;1.60;;
12906;SDS011;6521;50.498;8.474;2022-11-15T11:41:23;2.42;;;1.83;;
12906;SDS011;6521;50.498;8.474;2022-11-15T11:49:53;2.50;;;2.00;;
12906;SDS011;6521;50.498;8.474;2022-11-15T11:55:20;2.78;;;2.17;;
12906;SDS011;6521;50.498;8.474;2022-11-15T11:58:06;4.78;;;2.20;;
12906;SDS011;6521;50.498;8.474;2022-11-15T12:00:47;2.70;;;1.80;;
12906;SDS011;6521;50.498;8.474;2022-11-15T12:03:28;2.50;;;2.13;;
12906;SDS011;6521;50.498;8.474;2022-11-15T12:09:30;3.63;;;1.90;;
12906;SDS011;6521;50.498;8.474;2022-11-15T12:12:17;3.78;;;2.05;;
12906;SDS011;6521;50.498;8.474;2022-11-15T12:14:54;2.50;;;2.28;;
12906;SDS011;6521;50.498;8.474;2022-11-15T12:17:28;2.45;;;2.25;;
12906;SDS011;6521;50.498;8.474;2022-11-15T12:20:05;3.90;;;2.20;;
12906;SDS011;6521;50.498;8.474;2022-11-15T12:22:47;5.10;;;2.42;;
12906;SDS011;6521;50.498;8.474;2022-11-15T12:25:31;3.70;;;2.65;;
12906;SDS011;6521;50.498;8.474;2022-11-15T12:33:50;2.85;;;2.55;;
12906;SDS011;6521;50.498;8.474;2022-11-15T12:36:30;2.65;;;2.45;;
12906;SDS011;6521;50.498;8.474;2022-11-15T12:39:09;3.58;;;2.70;;
12906;SDS011;6521;50.498;8.474;2022-11-15T12:41:41;3.42;;;2.75;;
12906;SDS011;6521;50.498;8.474;2022-11-15T12:52:13;3.15;;;2.38;;
12906;SDS011;6521;50.498;8.474;2022-11-15T12:54:54;2.85;;;2.50;;
12906;SDS011;6521;50.498;8.474;2022-11-15T12:57:31;5.20;;;2.30;;
12906;SDS011;6521;50.498;8.474;2022-11-15T13:02:43;2.92;;;2.28;;
12906;SDS011;6521;50.498;8.474;2022-11-15T13:12:57;2.45;;;2.25;;
12906;SDS011;6521;50.498;8.474;2022-11-15T13:15:39;9.02;;;2.38;;
12906;SDS011;6521;50.498;8.474;2022-11-15T13:18:33;3.17;;;2.37;;
12906;SDS011;6521;50.498;8.474;2022-11-15T13:21:20;4.00;;;2.47;;
12906;SDS011;6521;50.498;8.474;2022-11-15T13:24:12;4.20;;;2.30;;
12906;SDS011;6521;50.498;8.474;2022-11-15T13:26:44;2.92;;;2.33;;
12906;SDS011;6521;50.498;8.474;2022-11-15T13:29:16;5.30;;;2.50;;
12906;SDS011;6521;50.498;8.474;2022-11-15T13:31:49;3.65;;;2.25;;
12906;SDS011;6521;50.498;8.474;2022-11-15T13:34:22;6.68;;;2.40;;
12906;SDS011;6521;50.498;8.474;2022-11-15T13:36:54;4.75;;;2.78;;
12906;SDS011;6521;50.498;8.474;2022-11-15T13:39:27;4.05;;;2.55;;
12906;SDS011;6521;50.498;8.474;2022-11-15T13:42:02;2.80;;;2.60;;
12906;SDS011;6521;50.498;8.474;2022-11-15T13:44:33;3.38;;;2.75;;
12906;SDS011;6521;50.498;8.474;2022-11-15T13:47:05;3.45;;;3.00;;
12906;SDS011;6521;50.498;8.474;2022-11-15T13:49:37;3.88;;;3.40;;
12906;SDS011;6521;50.498;8.474;2022-11-15T13:52:10;5.40;;;3.72;;
12906;SDS011;6521;50.498;8.474;2022-11-15T13:54:45;3.83;;;3.22;;
12906;SDS011;6521;50.498;8.474;2022-11-15T13:57:29;3.97;;;3.65;;
12906;SDS011;6521;50.498;8.474;2022-11-15T14:00:24;4.30;;;3.90;;
12906;SDS011;6521;50.498;8.474;2022-11-15T14:03:05;4.32;;;3.80;;
12906;SDS011;6521;50.498;8.474;2022-11-15T14:08:43;5.40;;;4.03;;
12906;SDS011;6521;50.498;8.474;2022-11-15T14:11:48;4.13;;;3.70;;
12906;SDS011;6521;50.498;8.474;2022-11-15T14:14:24;6.72;;;3.67;;
12906;SDS011;6521;50.498;8.474;2022-11-15T14:16:57;5.90;;;4.90;;
12906;SDS011;6521;50.498;8.474;2022-11-15T14:28:15;8.60;;;4.97;;
12906;SDS011;6521;50.498;8.474;2022-11-15T14:30:53;5.70;;;5.10;;
12906;SDS011;6521;50.498;8.474;2022-11-15T14:33:33;6.70;;;5.10;;
12906;SDS011;6521;50.498;8.474;2022-11-15T14:38:49;9.13;;;6.00;;
12906;SDS011;6521;50.498;8.474;2022-11-15T14:41:24;6.13;;;5.53;;
12906;SDS011;6521;50.498;8.474;2022-11-15T14:44:03;8.45;;;6.18;;
12906;SDS011;6521;50.498;8.474;2022-11-15T14:46:34;6.97;;;5.70;;
12906;SDS011;6521;50.498;8.474;2022-11-15T14:49:05;9.10;;;5.87;;
12906;SDS011;6521;50.498;8.474;2022-11-15T14:51:36;14.13;;;5.47;;
12906;SDS011;6521;50.498;8.474;2022-11-15T14:54:09;8.63;;;5.27;;
12906;SDS011;6521;50.498;8.474;2022-11-15T14:56:40;6.37;;;5.43;;
12906;SDS011;6521;50.498;8.474;2022-11-15T14:59:12;6.70;;;5.47;;
12906;SDS011;6521;50.498;8.474;2022-11-15T15:01:43;6.60;;;4.73;;
12906;SDS011;6521;50.498;8.474;2022-11-15T15:04:14;5.77;;;4.57;;
12906;SDS011;6521;50.498;8.474;2022-11-15T15:06:45;5.40;;;4.20;;
12906;SDS011;6521;50.498;8.474;2022-11-15T15:09:15;4.13;;;3.70;;
12906;SDS011;6521;50.498;8.474;2022-11-15T15:11:46;4.37;;;3.83;;
12906;SDS011;6521;50.498;8.474;2022-11-15T15:14:17;3.77;;;3.40;;
12906;SDS011;6521;50.498;8.474;2022-11-15T15:16:48;4.87;;;3.80;;
12906;SDS011;6521;50.498;8.474;2022-11-15T15:19:18;4.57;;;3.77;;
12906;SDS011;6521;50.498;8.474;2022-11-15T15:21:49;4.20;;;3.53;;
12906;SDS011;6521;50.498;8.474;2022-11-15T15:24:20;5.55;;;3.58;;
12906;SDS011;6521;50.498;8.474;2022-11-15T15:26:50;6.07;;;3.33;;
12906;SDS011;6521;50.498;8.474;2022-11-15T15:29:21;7.90;;;3.70;;
12906;SDS011;6521;50.498;8.474;2022-11-15T15:31:52;4.00;;;3.10;;
12906;SDS011;6521;50.498;8.474;2022-11-15T15:34:23;5.17;;;2.90;;
12906;SDS011;6521;50.498;8.474;2022-11-15T15:37:06;6.07;;;3.73;;
12906;SDS011;6521;50.498;8.474;2022-11-15T15:39:55;5.83;;;3.50;;
12906;SDS011;6521;50.498;8.474;2022-11-15T15:42:27;4.23;;;2.93;;
12906;SDS011;6521;50.498;8.474;2022-11-15T15:44:57;7.30;;;3.37;;
12906;SDS011;6521;50.498;8.474;2022-11-15T15:47:28;8.40;;;3.50;;
12906;SDS011;6521;50.498;8.474;2022-11-15T15:49:59;11.47;;;3.17;;
12906;SDS011;6521;50.498;8.474;2022-11-15T15:52:29;14.30;;;3.70;;
12906;SDS011;6521;50.498;8.474;2022-11-15T15:55:00;6.17;;;3.53;;
12906;SDS011;6521;50.498;8.474;2022-11-15T15:57:31;7.57;;;2.83;;
12906;SDS011;6521;50.498;8.474;2022-11-15T16:00:02;4.70;;;3.03;;
12906;SDS011;6521;50.498;8.474;2022-11-15T16:02:42;11.07;;;3.17;;
12906;SDS011;6521;50.498;8.474;2022-11-15T16:05:13;9.33;;;2.70;;
12906;SDS011;6521;50.498;8.474;2022-11-15T16:07:44;4.07;;;3.17;;
12906;SDS011;6521;50.498;8.474;2022-11-15T16:10:26;3.83;;;2.90;;
12906;SDS011;6521;50.498;8.474;2022-11-15T16:12:59;4.73;;;2.90;;
12906;SDS011;6521;50.498;8.474;2022-11-15T16:15:30;3.03;;;2.60;;
12906;SDS011;6521;50.498;8.474;2022-11-15T16:18:03;3.27;;;2.67;;
12906;SDS011;6521;50.498;8.474;2022-11-15T16:20:38;5.43;;;2.70;;
12906;SDS011;6521;50.498;8.474;2022-11-15T16:23:16;4.13;;;2.60;;
12906;SDS011;6521;50.498;8.474;2022-11-15T16:25:49;4.53;;;2.27;;
12906;SDS011;6521;50.498;8.474;2022-11-15T16:28:26;3.13;;;2.83;;
12906;SDS011;6521;50.498;8.474;2022-11-15T16:31:03;10.17;;;9.27;;
12906;SDS011;6521;50.498;8.474;2022-11-15T16:33:40;15.37;;;7.30;;
12906;SDS011;6521;50.498;8.474;2022-11-15T16:36:14;8.03;;;5.27;;
12906;SDS011;6521;50.498;8.474;2022-11-15T16:38:46;8.33;;;4.30;;
12906;SDS011;6521;50.498;8.474;2022-11-15T16:41:17;8.60;;;3.07;;
12906;SDS011;6521;50.498;8.474;2022-11-15T16:43:48;4.87;;;2.90;;
12906;SDS011;6521;50.498;8.474;2022-11-15T16:46:20;4.87;;;3.27;;
12906;SDS011;6521;50.498;8.474;2022-11-15T16:48:52;5.70;;;2.90;;
12906;SDS011;6521;50.498;8.474;2022-11-15T16:51:23;3.10;;;2.80;;
12906;SDS011;6521;50.498;8.474;2022-11-15T16:53:54;6.47;;;2.90;;
12906;SDS011;6521;50.498;8.474;2022-11-15T16:56:29;3.67;;;2.70;;
12906;SDS011;6521;50.498;8.474;2022-11-15T16:59:00;4.97;;;3.00;;
12906;SDS011;6521;50.498;8.474;2022-11-15T17:01:33;7.50;;;3.70;;
12906;SDS011;6521;50.498;8.474;2022-11-15T17:04:05;7.73;;;4.20;;
12906;SDS011;6521;50.498;8.474;2022-11-15T17:06:46;6.17;;;3.90;;
12906;SDS011;6521;50.498;8.474;2022-11-15T17:09:18;7.17;;;3.47;;
12906;SDS011;6521;50.498;8.474;2022-11-15T17:11:50;3.37;;;3.07;;
12906;SDS011;6521;50.498;8.474;2022-11-15T17:14:21;4.70;;;2.70;;
12906;SDS011;6521;50.498;8.474;2022-11-15T17:16:52;7.37;;;3.40;;
12906;SDS011;6521;50.498;8.474;2022-11-15T17:19:23;4.77;;;3.17;;
12906;SDS011;6521;50.498;8.474;2022-11-15T17:21:54;4.40;;;2.97;;
12906;SDS011;6521;50.498;8.474;2022-11-15T17:24:24;5.77;;;4.03;;
12906;SDS011;6521;50.498;8.474;2022-11-15T17:26:55;8.07;;;3.93;;
12906;SDS011;6521;50.498;8.474;2022-11-15T17:29:26;5.60;;;3.40;;
12906;SDS011;6521;50.498;8.474;2022-11-15T17:31:57;6.27;;;3.80;;
12906;SDS011;6521;50.498;8.474;2022-11-15T17:34:27;5.77;;;3.57;;
12906;SDS011;6521;50.498;8.474;2022-11-15T17:36:58;9.70;;;4.00;;
12906;SDS011;6521;50.498;8.474;2022-11-15T17:39:29;6.20;;;3.50;;
12906;SDS011;6521;50.498;8.474;2022-11-15T17:42:00;3.90;;;3.43;;
12906;SDS011;6521;50.498;8.474;2022-11-15T17:44:31;7.63;;;4.20;;
12906;SDS011;6521;50.498;8.474;2022-11-15T17:47:02;5.83;;;3.80;;
12906;SDS011;6521;50.498;8.474;2022-11-15T17:49:33;7.83;;;3.87;;
12906;SDS011;6521;50.498;8.474;2022-11-15T17:52:08;6.97;;;3.20;;
12906;SDS011;6521;50.498;8.474;2022-11-15T17:54:39;11.03;;;3.20;;
12906;SDS011;6521;50.498;8.474;2022-11-15T17:57:10;6.10;;;2.80;;
12906;SDS011;6521;50.498;8.474;2022-11-15T17:59:41;4.07;;;2.80;;
12906;SDS011;6521;50.498;8.474;2022-11-15T18:02:11;6.27;;;3.00;;
12906;SDS011;6521;50.498;8.474;2022-11-15T18:04:42;4.20;;;3.00;;
12906;SDS011;6521;50.498;8.474;2022-11-15T18:07:13;5.43;;;2.90;;
12906;SDS011;6521;50.498;8.474;2022-11-15T18:09:44;5.40;;;2.80;;
12906;SDS011;6521;50.498;8.474;2022-11-15T18:12:15;3.70;;;3.00;;
12906;SDS011;6521;50.498;8.474;2022-11-15T18:14:46;8.13;;;3.90;;
12906;SDS011;6521;50.498;8.474;2022-11-15T18:17:16;5.63;;;4.10;;
12906;SDS011;6521;50.498;8.474;2022-11-15T18:19:48;3.97;;;3.40;;
12906;SDS011;6521;50.498;8.474;2022-11-15T18:22:19;3.63;;;2.87;;
12906;SDS011;6521;50.498;8.474;2022-11-15T18:24:49;4.10;;;2.93;;
12906;SDS011;6521;50.498;8.474;2022-11-15T18:27:20;4.93;;;3.10;;
12906;SDS011;6521;50.498;8.474;2022-11-15T18:29:51;9.57;;;3.47;;
12906;SDS011;6521;50.498;8.474;2022-11-15T18:32:22;4.50;;;3.20;;
12906;SDS011;6521;50.498;8.474;2022-11-15T18:34:52;5.73;;;3.13;;
12906;SDS011;6521;50.498;8.474;2022-11-15T18:37:24;5.53;;;3.33;;
12906;SDS011;6521;50.498;8.474;2022-11-15T18:39:55;5.23;;;2.63;;